createdAt,value
2018-07-31T00:00:25.590Z,7.72
2018-07-31T00:03:29.089Z,6.33
2018-07-31T00:06:32.444Z,6.72
2018-07-31T00:09:35.822Z,6.40
2018-07-31T00:12:39.187Z,8.85
2018-07-31T00:15:42.565Z,8.00
2018-07-31T00:18:45.983Z,7.28
2018-07-31T00:21:49.344Z,6.10
2018-07-31T00:24:52.692Z,7.17
2018-07-31T00:27:56.067Z,7.33
2018-07-31T00:30:59.437Z,9.20
2018-07-31T00:34:02.792Z,7.70
2018-07-31T00:37:06.191Z,7.40
2018-07-31T00:40:09.524Z,8.03
2018-07-31T00:43:12.892Z,7.22
2018-07-31T00:46:16.300Z,6.25
2018-07-31T00:49:19.688Z,7.05
2018-07-31T00:52:23.149Z,7.10
2018-07-31T00:55:26.536Z,6.80
2018-07-31T00:58:29.635Z,8.70
2018-07-31T01:01:32.999Z,6.53
2018-07-31T01:04:36.376Z,7.10
2018-07-31T01:07:39.763Z,6.92
2018-07-31T01:10:43.130Z,7.47
2018-07-31T01:13:46.496Z,8.85
2018-07-31T01:16:49.888Z,8.08
2018-07-31T01:19:54.092Z,10.65
2018-07-31T01:22:59.060Z,8.25
2018-07-31T01:26:02.741Z,8.38
2018-07-31T01:29:06.151Z,7.50
2018-07-31T01:32:09.532Z,7.28
2018-07-31T01:35:12.921Z,6.80
2018-07-31T01:38:16.289Z,7.15
2018-07-31T01:41:19.632Z,7.03
2018-07-31T01:44:22.996Z,6.22
2018-07-31T01:47:26.383Z,7.53
2018-07-31T01:50:29.741Z,6.67
2018-07-31T01:53:33.095Z,6.75
2018-07-31T01:56:36.515Z,8.85
2018-07-31T01:59:39.904Z,7.45
2018-07-31T02:02:44.862Z,9.75
2018-07-31T02:05:48.236Z,7.20
2018-07-31T02:08:51.576Z,8.23
2018-07-31T02:11:54.948Z,10.10
2018-07-31T02:14:58.291Z,10.85
2018-07-31T02:18:01.636Z,8.43
2018-07-31T02:21:05.000Z,9.23
2018-07-31T02:24:08.359Z,9.08
2018-07-31T02:27:11.784Z,8.35
2018-07-31T02:30:22.267Z,8.28
2018-07-31T02:33:25.651Z,7.42
2018-07-31T02:36:28.988Z,7.80
2018-07-31T02:39:32.343Z,7.78
2018-07-31T02:42:35.733Z,10.40
2018-07-31T02:45:39.100Z,10.18
2018-07-31T02:48:42.480Z,10.58
2018-07-31T02:51:45.821Z,9.88
2018-07-31T02:54:49.220Z,10.10
2018-07-31T02:57:52.667Z,9.63
2018-07-31T03:00:56.012Z,9.28
2018-07-31T03:03:59.377Z,9.73
2018-07-31T03:07:02.721Z,9.93
2018-07-31T03:10:07.235Z,8.08
2018-07-31T03:13:10.560Z,7.95
2018-07-31T03:16:13.963Z,8.15
2018-07-31T03:19:17.297Z,12.47
2018-07-31T03:22:20.657Z,11.57
2018-07-31T03:25:23.998Z,10.35
2018-07-31T03:28:27.332Z,8.25
2018-07-31T03:31:30.680Z,8.55
2018-07-31T03:34:34.008Z,7.53
2018-07-31T03:37:37.361Z,9.48
2018-07-31T03:40:40.718Z,10.93
2018-07-31T03:43:44.044Z,8.28
2018-07-31T03:46:47.389Z,8.73
2018-07-31T03:49:50.702Z,8.48
2018-07-31T03:52:54.050Z,7.85
2018-07-31T03:55:57.396Z,8.95
2018-07-31T03:59:00.728Z,7.87
2018-07-31T04:02:04.099Z,9.00
2018-07-31T04:05:07.439Z,7.28
2018-07-31T04:08:10.832Z,8.15
2018-07-31T04:11:14.208Z,8.43
2018-07-31T04:14:17.547Z,8.45
2018-07-31T04:17:20.905Z,8.73
2018-07-31T04:20:24.619Z,7.87
2018-07-31T04:23:27.958Z,6.58
2018-07-31T04:26:31.338Z,11.25
2018-07-31T04:29:34.672Z,7.22
2018-07-31T04:32:38.049Z,8.13
2018-07-31T04:35:41.448Z,11.05
2018-07-31T04:38:44.846Z,7.40
2018-07-31T04:41:48.224Z,8.18
2018-07-31T04:44:51.596Z,9.33
2018-07-31T04:47:54.955Z,7.67
2018-07-31T04:50:58.340Z,9.10
2018-07-31T04:54:02.095Z,7.65
2018-07-31T04:57:05.539Z,7.87
2018-07-31T05:00:09.510Z,9.53
2018-07-31T05:03:12.927Z,11.93
2018-07-31T05:06:16.285Z,10.55
2018-07-31T05:09:19.633Z,9.78
2018-07-31T05:12:22.979Z,7.90
2018-07-31T05:15:26.320Z,9.30
2018-07-31T05:18:29.681Z,8.50
2018-07-31T05:21:33.211Z,8.28
2018-07-31T05:24:36.545Z,9.78
2018-07-31T05:27:39.883Z,7.92
2018-07-31T05:30:43.215Z,8.45
2018-07-31T05:33:46.567Z,8.85
2018-07-31T05:36:49.912Z,12.82
2018-07-31T05:39:53.569Z,9.13
2018-07-31T05:42:56.911Z,11.28
2018-07-31T05:46:00.504Z,13.38
2018-07-31T05:49:04.419Z,16.37
2018-07-31T05:52:07.780Z,12.10
2018-07-31T05:55:11.110Z,12.95
2018-07-31T05:58:14.548Z,15.13
2018-07-31T06:01:17.923Z,11.65
2018-07-31T06:04:21.388Z,16.73
2018-07-31T06:07:24.769Z,14.53
2018-07-31T06:10:28.247Z,14.43
2018-07-31T06:13:31.663Z,16.67
2018-07-31T06:16:35.012Z,9.18
2018-07-31T06:19:38.368Z,14.40
2018-07-31T06:22:41.776Z,16.93
2018-07-31T06:25:45.130Z,13.25
2018-07-31T06:28:48.484Z,16.27
2018-07-31T06:31:51.840Z,11.22
2018-07-31T06:34:55.193Z,11.78
2018-07-31T06:37:58.653Z,17.30
2018-07-31T06:41:02.025Z,14.55
2018-07-31T06:44:05.717Z,17.82
2018-07-31T06:47:09.068Z,13.08
2018-07-31T06:50:12.472Z,17.60
2018-07-31T06:53:15.807Z,17.37
2018-07-31T06:56:19.255Z,12.53
2018-07-31T06:59:22.757Z,13.90
2018-07-31T07:02:26.112Z,10.48
2018-07-31T07:05:29.472Z,10.48
2018-07-31T07:08:32.823Z,12.90
2018-07-31T07:11:36.160Z,11.45
2018-07-31T07:14:39.521Z,12.63
2018-07-31T07:17:42.861Z,10.63
2018-07-31T07:20:46.212Z,12.28
2018-07-31T07:23:49.569Z,15.55
2018-07-31T07:26:52.904Z,9.43
2018-07-31T07:29:56.253Z,8.15
2018-07-31T07:32:59.624Z,9.95
2018-07-31T07:36:03.013Z,9.70
2018-07-31T07:39:09.560Z,9.25
2018-07-31T07:42:12.897Z,10.93
2018-07-31T07:45:16.352Z,11.43
2018-07-31T07:48:19.729Z,12.30
2018-07-31T07:51:23.077Z,13.90
2018-07-31T07:54:26.441Z,9.08
2018-07-31T07:57:29.781Z,7.87
2018-07-31T08:00:33.132Z,9.70
2018-07-31T08:03:36.489Z,14.65
2018-07-31T08:06:39.593Z,9.40
2018-07-31T08:09:42.953Z,10.82
2018-07-31T08:12:46.336Z,13.58
2018-07-31T08:15:49.740Z,15.10
2018-07-31T08:18:53.133Z,13.32
2018-07-31T08:21:56.498Z,20.17
2018-07-31T08:24:59.861Z,14.18
2018-07-31T08:28:03.208Z,15.63
2018-07-31T08:31:06.635Z,11.63
2018-07-31T08:34:10.000Z,14.00
2018-07-31T08:37:13.386Z,12.07
2018-07-31T08:40:16.767Z,14.03
2018-07-31T08:43:20.117Z,14.73
2018-07-31T08:46:23.580Z,14.00
2018-07-31T08:49:26.920Z,11.78
2018-07-31T08:52:30.300Z,10.23
2018-07-31T08:55:33.677Z,11.45
2018-07-31T08:58:37.071Z,10.03
2018-07-31T09:01:40.417Z,14.33
2018-07-31T09:04:43.874Z,12.25
2018-07-31T09:07:47.217Z,13.18
2018-07-31T09:10:50.618Z,14.58
2018-07-31T09:13:53.937Z,9.98
2018-07-31T09:16:57.369Z,12.43
2018-07-31T09:20:00.696Z,8.53
2018-07-31T09:23:04.072Z,14.15
2018-07-31T09:26:07.501Z,10.00
2018-07-31T09:29:10.808Z,11.53
2018-07-31T09:32:14.161Z,12.28
2018-07-31T09:35:17.480Z,11.00
2018-07-31T09:38:20.813Z,11.70
2018-07-31T09:41:24.154Z,10.55
2018-07-31T09:44:27.456Z,10.25
2018-07-31T09:47:30.779Z,10.25
2018-07-31T09:50:34.135Z,8.25
2018-07-31T09:53:37.423Z,8.25
2018-07-31T09:56:40.748Z,7.90
2018-07-31T09:59:44.076Z,7.83
2018-07-31T10:02:47.684Z,8.63
2018-07-31T10:05:51.000Z,10.82
2018-07-31T10:08:54.320Z,8.98
2018-07-31T10:11:57.697Z,10.35
2018-07-31T10:15:01.016Z,9.43
2018-07-31T10:18:04.434Z,9.10
2018-07-31T10:21:08.028Z,10.38
2018-07-31T10:24:11.386Z,8.50
2018-07-31T10:27:14.736Z,7.15
2018-07-31T10:30:18.092Z,8.35
2018-07-31T10:33:21.443Z,8.25
2018-07-31T10:36:24.763Z,6.33
2018-07-31T10:39:28.119Z,8.08
2018-07-31T10:42:31.179Z,6.37
2018-07-31T10:45:34.497Z,6.92
2018-07-31T10:48:37.920Z,8.33
2018-07-31T10:51:41.458Z,6.17
2018-07-31T10:54:44.786Z,5.40
2018-07-31T10:57:48.151Z,10.80
2018-07-31T11:00:51.455Z,7.25
2018-07-31T11:03:54.868Z,6.87
2018-07-31T11:06:58.129Z,6.78
2018-07-31T11:10:01.474Z,9.95
2018-07-31T11:13:04.868Z,8.05
2018-07-31T11:16:08.204Z,6.33
2018-07-31T11:19:11.568Z,7.70
2018-07-31T11:22:14.920Z,8.63
2018-07-31T11:25:18.272Z,7.67
2018-07-31T11:28:21.633Z,6.03
2018-07-31T11:31:24.998Z,7.08
2018-07-31T11:34:28.342Z,6.12
2018-07-31T11:37:31.668Z,6.03
2018-07-31T11:40:35.004Z,6.53
2018-07-31T11:43:38.360Z,7.53
2018-07-31T11:46:41.699Z,6.15
2018-07-31T11:49:45.104Z,8.38
2018-07-31T11:52:48.432Z,6.42
2018-07-31T11:55:51.830Z,7.60
2018-07-31T11:58:55.135Z,8.80
2018-07-31T12:01:58.460Z,6.35
2018-07-31T12:05:01.812Z,6.72
2018-07-31T12:08:05.168Z,8.73
2018-07-31T12:11:08.561Z,8.15
2018-07-31T12:14:12.022Z,7.05
2018-07-31T12:17:15.347Z,7.55
2018-07-31T12:20:18.687Z,7.50
2018-07-31T12:23:22.014Z,8.18
2018-07-31T12:26:25.400Z,6.85
2018-07-31T12:29:28.844Z,7.90
2018-07-31T12:32:32.192Z,7.55
2018-07-31T12:35:35.585Z,7.10
2018-07-31T12:38:38.946Z,6.47
2018-07-31T12:41:42.300Z,10.30
2018-07-31T12:44:45.656Z,5.70
2018-07-31T12:47:48.992Z,7.75
2018-07-31T12:50:52.565Z,7.90
2018-07-31T12:53:55.966Z,7.92
2018-07-31T12:56:59.331Z,8.28
2018-07-31T13:00:02.749Z,7.45
2018-07-31T13:03:06.474Z,7.55
2018-07-31T13:06:09.845Z,6.55
2018-07-31T13:09:13.182Z,7.12
2018-07-31T13:12:16.567Z,6.97
2018-07-31T13:15:19.919Z,6.87
2018-07-31T13:18:23.512Z,8.30
2018-07-31T13:21:26.900Z,7.80
2018-07-31T13:24:30.248Z,7.55
2018-07-31T13:27:33.620Z,6.25
2018-07-31T13:30:37.021Z,8.48
2018-07-31T13:33:40.332Z,5.45
2018-07-31T13:36:43.692Z,6.20
2018-07-31T13:39:47.008Z,6.53
2018-07-31T13:42:50.388Z,11.95
2018-07-31T13:45:53.796Z,6.08
2018-07-31T13:48:57.123Z,6.92
2018-07-31T13:52:00.465Z,5.78
2018-07-31T13:55:03.915Z,5.87
2018-07-31T13:58:07.260Z,5.75
2018-07-31T14:01:10.596Z,7.10
2018-07-31T14:04:14.205Z,6.95
2018-07-31T14:07:17.593Z,7.37
2018-07-31T14:10:20.961Z,7.45
2018-07-31T14:13:24.288Z,5.97
2018-07-31T14:16:27.750Z,8.25
2018-07-31T14:19:31.073Z,8.10
2018-07-31T14:22:34.424Z,5.72
2018-07-31T14:25:37.764Z,6.20
2018-07-31T14:28:41.128Z,5.15
2018-07-31T14:31:44.675Z,5.67
2018-07-31T14:34:47.992Z,9.00
2018-07-31T14:37:51.427Z,7.33
2018-07-31T14:40:54.754Z,7.70
2018-07-31T14:43:58.103Z,5.35
2018-07-31T14:47:01.436Z,5.10
2018-07-31T14:50:05.308Z,8.40
2018-07-31T14:53:08.800Z,5.83
2018-07-31T14:56:12.149Z,6.20
2018-07-31T14:59:15.803Z,6.03
2018-07-31T15:02:19.151Z,6.53
2018-07-31T15:05:22.471Z,8.93
2018-07-31T15:08:25.807Z,5.92
2018-07-31T15:11:29.131Z,6.10
2018-07-31T15:14:32.474Z,9.30
2018-07-31T15:17:35.820Z,7.03
2018-07-31T15:20:39.145Z,6.50
2018-07-31T15:23:42.494Z,5.78
2018-07-31T15:26:45.844Z,5.28
2018-07-31T15:29:49.180Z,7.42
2018-07-31T15:32:52.544Z,6.25
2018-07-31T15:35:56.283Z,8.73
2018-07-31T15:38:59.626Z,6.33
2018-07-31T15:42:02.687Z,5.65
2018-07-31T15:45:06.104Z,5.42
2018-07-31T15:48:09.507Z,5.30
2018-07-31T15:51:12.800Z,6.80
2018-07-31T15:54:17.008Z,6.78
2018-07-31T15:57:20.336Z,7.12
2018-07-31T16:00:23.758Z,6.05
2018-07-31T16:03:27.120Z,5.70
2018-07-31T16:06:30.617Z,8.18
2018-07-31T16:09:33.939Z,6.17
2018-07-31T16:12:37.305Z,7.45
2018-07-31T16:15:40.671Z,8.60
2018-07-31T16:18:44.017Z,6.00
2018-07-31T16:21:47.348Z,6.60
2018-07-31T16:24:50.740Z,7.87
2018-07-31T16:27:54.232Z,7.17
2018-07-31T16:30:57.600Z,8.38
2018-07-31T16:34:00.996Z,5.95
2018-07-31T16:37:04.368Z,6.20
2018-07-31T16:40:07.772Z,12.05
2018-07-31T16:43:11.129Z,6.80
2018-07-31T16:46:14.471Z,7.35
2018-07-31T16:49:17.927Z,6.50
2018-07-31T16:52:21.288Z,8.13
2018-07-31T16:55:24.647Z,5.95
2018-07-31T16:58:28.012Z,6.12
2018-07-31T17:01:31.355Z,9.28
2018-07-31T17:04:34.822Z,9.05
2018-07-31T17:07:38.205Z,6.50
2018-07-31T17:10:41.604Z,6.28
2018-07-31T17:13:44.952Z,6.65
2018-07-31T17:16:48.423Z,8.18
2018-07-31T17:19:51.808Z,7.10
2018-07-31T17:22:55.151Z,9.45
2018-07-31T17:25:58.516Z,7.17
2018-07-31T17:29:01.926Z,7.35
2018-07-31T17:32:05.419Z,6.55
2018-07-31T17:35:08.796Z,6.70
2018-07-31T17:38:12.151Z,8.70
2018-07-31T17:41:15.539Z,7.15
2018-07-31T17:44:18.944Z,9.98
2018-07-31T17:47:22.260Z,9.73
2018-07-31T17:50:25.669Z,11.38
2018-07-31T17:53:29.052Z,11.63
2018-07-31T17:56:32.652Z,5.95
2018-07-31T17:59:36.104Z,5.12
2018-07-31T18:02:39.474Z,6.00
2018-07-31T18:05:43.017Z,5.50
2018-07-31T18:08:46.392Z,10.65
2018-07-31T18:11:49.815Z,6.30
2018-07-31T18:14:53.154Z,9.90
2018-07-31T18:17:56.520Z,8.73
2018-07-31T18:21:00.014Z,6.62
2018-07-31T18:24:03.523Z,6.08
2018-07-31T18:27:07.005Z,6.95
2018-07-31T18:30:10.324Z,5.75
2018-07-31T18:33:13.679Z,6.92
2018-07-31T18:36:17.038Z,7.87
2018-07-31T18:39:20.396Z,5.62
2018-07-31T18:42:24.771Z,9.60
2018-07-31T18:45:28.174Z,9.20
2018-07-31T18:48:31.508Z,5.15
2018-07-31T18:51:34.892Z,5.45
2018-07-31T18:54:38.237Z,5.62
2018-07-31T18:57:41.626Z,5.42
2018-07-31T19:00:44.979Z,10.13
2018-07-31T19:03:48.427Z,6.83
2018-07-31T19:06:51.816Z,6.22
2018-07-31T19:09:54.891Z,6.60
2018-07-31T19:12:58.268Z,6.67
2018-07-31T19:16:01.629Z,4.75
2018-07-31T19:19:05.167Z,9.18
2018-07-31T19:22:08.549Z,5.10
2018-07-31T19:25:11.896Z,5.05
2018-07-31T19:28:15.430Z,7.17
2018-07-31T19:31:18.700Z,7.25
2018-07-31T19:34:22.121Z,5.30
2018-07-31T19:37:25.593Z,7.35
2018-07-31T19:40:28.957Z,7.28
2018-07-31T19:43:32.323Z,6.62
2018-07-31T19:46:35.703Z,6.12
2018-07-31T19:49:39.054Z,7.78
2018-07-31T19:52:42.468Z,9.38
2018-07-31T19:55:45.816Z,7.17
2018-07-31T19:58:49.189Z,7.08
2018-07-31T20:01:52.569Z,5.62
2018-07-31T20:04:56.016Z,7.15
2018-07-31T20:07:59.507Z,9.38
2018-07-31T20:11:02.849Z,6.17
2018-07-31T20:14:06.227Z,5.92
2018-07-31T20:17:09.579Z,7.00
2018-07-31T20:20:12.973Z,6.90
2018-07-31T20:23:16.379Z,7.30
2018-07-31T20:26:19.760Z,7.58
2018-07-31T20:29:23.164Z,6.30
2018-07-31T20:32:26.592Z,5.75
2018-07-31T20:35:29.959Z,7.25
2018-07-31T20:38:34.402Z,11.28
2018-07-31T20:41:38.275Z,5.40
2018-07-31T20:44:41.648Z,5.72
2018-07-31T20:47:45.117Z,6.80
2018-07-31T20:50:48.448Z,6.35
2018-07-31T20:53:51.837Z,5.87
2018-07-31T20:56:55.172Z,6.17
2018-07-31T20:59:58.540Z,5.95
2018-07-31T21:03:01.926Z,6.47
2018-07-31T21:06:05.407Z,6.42
2018-07-31T21:09:10.629Z,8.13
2018-07-31T21:12:13.997Z,7.85
2018-07-31T21:15:17.423Z,6.58
2018-07-31T21:18:20.818Z,5.87
2018-07-31T21:21:24.153Z,8.55
2018-07-31T21:24:27.499Z,5.08
2018-07-31T21:27:30.902Z,6.47
2018-07-31T21:30:34.366Z,6.22
2018-07-31T21:33:37.720Z,7.25
2018-07-31T21:36:41.162Z,5.22
2018-07-31T21:39:44.820Z,6.75
2018-07-31T21:42:48.408Z,6.03
2018-07-31T21:45:51.784Z,5.40
2018-07-31T21:48:55.137Z,7.17
2018-07-31T21:51:58.480Z,7.53
2018-07-31T21:55:01.916Z,4.97
2018-07-31T21:58:05.256Z,5.28
2018-07-31T22:01:09.432Z,5.67
2018-07-31T22:04:12.780Z,4.90
2018-07-31T22:07:16.123Z,7.53
2018-07-31T22:10:19.579Z,5.95
2018-07-31T22:13:22.941Z,6.33
2018-07-31T22:16:29.263Z,6.28
2018-07-31T22:19:32.638Z,5.80
2018-07-31T22:22:35.980Z,5.05
2018-07-31T22:25:39.355Z,5.45
2018-07-31T22:28:42.725Z,5.50
2018-07-31T22:31:46.063Z,6.58
2018-07-31T22:34:49.405Z,8.60
2018-07-31T22:37:52.736Z,9.53
2018-07-31T22:40:56.084Z,5.35
2018-07-31T22:43:59.408Z,6.33
2018-07-31T22:47:02.747Z,6.42
2018-07-31T22:50:06.128Z,7.75
2018-07-31T22:53:09.453Z,8.80
2018-07-31T22:56:12.796Z,6.12
2018-07-31T22:59:16.224Z,12.73
2018-07-31T23:02:19.564Z,17.95
2018-07-31T23:05:22.924Z,13.65
2018-07-31T23:08:26.251Z,12.85
2018-07-31T23:11:29.588Z,13.28
2018-07-31T23:14:32.912Z,10.30
2018-07-31T23:17:36.258Z,8.70
2018-07-31T23:20:39.611Z,8.88
2018-07-31T23:23:42.945Z,6.62
2018-07-31T23:26:46.314Z,8.70
2018-07-31T23:29:49.660Z,8.98
2018-07-31T23:32:53.017Z,8.58
2018-07-31T23:35:56.376Z,7.35
2018-07-31T23:38:59.716Z,7.85
2018-07-31T23:42:03.066Z,8.50
2018-07-31T23:45:06.460Z,8.23
2018-07-31T23:48:09.832Z,10.53
2018-07-31T23:51:13.180Z,11.65
2018-07-31T23:54:16.515Z,6.20
2018-07-31T23:57:19.872Z,6.75
